MUGM/NBW METAR and TAF weather

Enter ICAO airport designator
Station Type Date Time Source
MUGM METAR 2019/02/18 03:56 UTC NOAA

MUGM 180356Z 34003KT 9999 FEW035 26/24 A3008 RMK SLP186 T02560244


Station Type Date Time Source
MUGM Decoded METAR 2019/02/18 03:56 UTC NOAA

GUANTANAMO BAY, CUBA NAVAL, CU, Cuba (MUGM) 19-55N 075-12W 23M
Feb 17, 2019 - 10:56 PM EST / 2019.02.18 0356 UTC
Wind: from the NNW (340 degrees) at 3 MPH (3 KT):0
Visibility: greater than 7 mile(s):0
Sky conditions: mostly clear
Temperature: 78.1 F (25.6 C)
Dew Point: 75.9 F (24.4 C)
Relative Humidity: 93%
Pressure (altimeter): 30.08 in. Hg (1018 hPa)
ob: MUGM 180356Z 34003KT 9999 FEW035 26/24 A3008 RMK SLP186 T02560244
cycle: 4

Station Type Date Time Source
MUGM TAF 2019/02/18 01:22 UTC NOAA

TAF
AMD MUGM 1801/1823 10010KT 9999 FEW030 QNH2997INS
BECMG 1802/1804 35008KT QNH2995INS
BECMG 1815/1817 130015KT QNH2997INS T22/1810Z T31/1819Z
AMD 0111 FN00205


Example: see airport list